Time;durP1;ratioP1;P1;durP2;ratioP2;P2;SDS_P1;SDS_P2;PMS_P1;PMS_P2;Temp;Humidity;BMP_temperature;BMP_pressure;BME280_temperature;BME280_humidity;BME280_pressure;Samples;Min_cycle;Max_cycle;Signal;HPM_P1;HPM_P2
2022/06/29 00:00:50;;;;;;;6.25;4.80;;;;;;;19.83;85.32;97052.97;5064221;28;20132;-60
2022/06/29 00:03:17;;;;;;;8.50;4.15;;;;;;;19.74;85.00;97061.19;5063984;28;20055;-60
2022/06/29 00:05:44;;;;;;;8.18;4.57;;;;;;;18.84;85.94;96928.31;5062419;28;20041;-61
2022/06/29 00:08:11;;;;;;;8.50;4.95;;;;;;;19.19;87.62;97036.44;5064212;28;20056;-61
2022/06/29 00:10:38;;;;;;;7.57;5.38;;;;;;;19.39;88.96;97049.31;5063767;28;20048;-61
2022/06/29 00:13:05;;;;;;;8.85;4.93;;;;;;;19.47;88.26;97036.75;5063882;28;20060;-60
2022/06/29 00:15:32;;;;;;;10.50;6.60;;;;;;;19.37;88.35;97025.72;5063817;28;20053;-61
2022/06/29 00:17:58;;;;;;;11.15;7.18;;;;;;;18.62;92.34;97014.06;5063799;28;20439;-62
2022/06/29 00:20:25;;;;;;;13.88;7.03;;;;;;;19.21;91.47;97051.63;5063674;28;20053;-61
2022/06/29 00:22:52;;;;;;;11.98;6.40;;;;;;;19.47;89.50;97042.38;5062055;28;20429;-63
2022/06/29 00:25:18;;;;;;;6.45;4.72;;;;;;;19.53;88.80;97057.53;5063547;28;20052;-60
2022/06/29 00:27:45;;;;;;;8.27;5.50;;;;;;;19.18;90.20;97007.56;5062375;28;20059;-62
2022/06/29 00:30:13;;;;;;;6.45;5.43;;;;;;;19.28;90.05;97003.78;5063560;28;20053;-60
2022/06/29 00:32:40;;;;;;;9.77;5.63;;;;;;;18.99;90.25;96994.25;5062198;28;20053;-62
2022/06/29 00:35:08;;;;;;;8.48;4.88;;;;;;;19.45;91.31;97050.44;5063321;28;20576;-61
2022/06/29 00:37:35;;;;;;;11.55;5.93;;;;;;;19.35;90.97;97028.94;5063529;28;20064;-61
2022/06/29 00:40:03;;;;;;;9.10;5.10;;;;;;;19.31;87.99;97017.00;5062055;28;20501;-60
2022/06/29 00:42:31;;;;;;;6.35;5.18;;;;;;;19.24;87.37;97017.06;5063632;28;20110;-60
2022/06/29 00:44:59;;;;;;;4.90;4.40;;;;;;;19.30;87.77;97037.84;5062367;28;20056;-61
2022/06/29 00:47:26;;;;;;;9.60;5.25;;;;;;;18.85;90.37;97000.09;5064535;28;20066;-62
2022/06/29 00:49:53;;;;;;;9.93;5.97;;;;;;;18.90;90.70;96996.81;5065586;28;20059;-62
2022/06/29 00:52:23;;;;;;;8.65;5.50;;;;;;;19.28;90.69;97048.72;5066504;28;20584;-60
2022/06/29 00:55:11;;;;;;;8.50;5.40;;;;;;;19.37;90.44;97036.94;5065435;28;20507;-63
2022/06/29 00:57:42;;;;;;;6.15;5.40;;;;;;;18.55;91.17;96892.75;5065780;28;20251;-61
2022/06/29 01:00:09;;;;;;;6.18;4.82;;;;;;;19.19;90.15;96992.28;5066662;28;20138;-61
2022/06/29 01:02:36;;;;;;;7.40;5.22;;;;;;;19.43;86.44;97018.38;5066738;28;20056;-61
2022/06/29 01:05:05;;;;;;;6.90;5.03;;;;;;;19.40;86.12;97020.03;5066824;28;20052;-59
2022/06/29 01:07:33;;;;;;;6.60;4.65;;;;;;;18.74;86.07;96942.53;5067027;28;20908;-60
2022/06/29 01:10:00;;;;;;;7.63;4.60;;;;;;;19.33;86.22;97013.75;5066885;28;20059;-60
2022/06/29 01:12:27;;;;;;;5.88;4.50;;;;;;;19.07;85.76;96973.25;5066982;28;20431;-60
2022/06/29 01:14:54;;;;;;;6.85;4.47;;;;;;;18.92;86.83;96976.72;5065027;28;20506;-60
2022/06/29 01:17:22;;;;;;;7.60;4.63;;;;;;;19.18;86.14;97024.41;5067063;28;20059;-60
2022/06/29 01:19:49;;;;;;;7.47;4.47;;;;;;;18.61;86.83;96967.59;5066312;28;20174;-61
2022/06/29 01:22:18;;;;;;;5.32;4.45;;;;;;;19.09;86.88;97026.97;5065098;28;20048;-61
2022/06/29 01:24:46;;;;;;;9.43;4.15;;;;;;;19.09;87.98;97012.13;5065946;28;20450;-62
2022/06/29 01:27:14;;;;;;;9.18;4.50;;;;;;;18.88;86.93;96971.16;5065032;28;20048;-61
2022/06/29 01:29:41;;;;;;;7.38;4.40;;;;;;;19.18;86.34;97013.16;5066483;28;20511;-60
2022/06/29 01:32:08;;;;;;;7.47;4.80;;;;;;;19.18;86.33;97010.34;5065005;28;20056;-62
2022/06/29 01:34:36;;;;;;;6.43;4.53;;;;;;;17.14;85.86;96695.91;5066313;28;20166;-61
2022/06/29 01:37:04;;;;;;;11.35;5.50;;;;;;;18.58;86.59;96934.78;5066487;28;20061;-60
2022/06/29 01:39:31;;;;;;;10.20;5.35;;;;;;;19.01;87.91;97000.22;5066088;28;20052;-63
2022/06/29 01:41:58;;;;;;;7.80;4.80;;;;;;;18.98;88.15;97012.31;5064631;28;20054;-61
2022/06/29 01:44:25;;;;;;;5.45;4.78;;;;;;;18.91;88.42;97009.59;5066061;28;20052;-61
2022/06/29 01:46:52;;;;;;;5.32;4.13;;;;;;;19.03;87.42;97005.41;5066007;28;20271;-61
2022/06/29 01:49:18;;;;;;;6.15;4.63;;;;;;;19.16;86.28;96993.13;5066243;28;20491;-60
2022/06/29 01:51:45;;;;;;;8.98;4.65;;;;;;;19.00;85.84;96973.34;5065863;28;20057;-61
2022/06/29 01:54:12;;;;;;;8.10;4.75;;;;;;;19.31;86.80;96994.53;5064565;28;20430;-61
2022/06/29 01:56:39;;;;;;;8.13;4.95;;;;;;;18.69;86.40;96878.47;5064665;28;20426;-61
2022/06/29 01:59:06;;;;;;;6.18;4.25;;;;;;;19.26;85.81;96944.41;5064396;28;20063;-60
2022/06/29 02:01:33;;;;;;;7.25;4.60;;;;;;;19.57;84.91;96990.00;5065815;28;20430;-63
2022/06/29 02:03:59;;;;;;;8.70;4.97;;;;;;;19.68;84.19;96989.81;5065436;28;20060;-60
2022/06/29 02:06:26;;;;;;;7.97;5.05;;;;;;;19.47;84.01;96951.69;5065507;28;20156;-60
2022/06/29 02:08:53;;;;;;;5.95;4.65;;;;;;;19.14;84.04;96922.56;5064262;28;20102;-63
2022/06/29 02:11:20;;;;;;;9.25;4.95;;;;;;;19.62;83.82;96991.56;5065553;28;20056;-60
2022/06/29 02:13:47;;;;;;;8.40;4.82;;;;;;;19.07;83.71;96945.16;5065528;28;20529;-61
2022/06/29 02:16:14;;;;;;;6.25;4.05;;;;;;;19.39;84.58;97001.56;5063981;28;20060;-60
2022/06/29 02:18:42;;;;;;;8.80;4.88;;;;;;;18.81;85.88;96920.75;5065564;28;20079;-60
2022/06/29 02:21:09;;;;;;;6.43;4.15;;;;;;;19.30;85.77;96998.53;5063857;28;20356;-60
2022/06/29 02:23:36;;;;;;;7.32;4.65;;;;;;;18.98;86.75;96964.59;5064061;28;20056;-60
2022/06/29 02:26:03;;;;;;;4.93;4.32;;;;;;;18.60;87.66;96943.56;5065201;28;20053;-62
2022/06/29 02:28:30;;;;;;;8.60;4.88;;;;;;;19.06;87.47;96994.09;5063844;28;20059;-60
2022/06/29 02:36:27;;;;;;;8.27;4.93;;;;;;;18.95;86.42;96967.44;5064987;28;20048;-61
2022/06/29 02:38:54;;;;;;;6.05;4.10;;;;;;;19.36;84.96;97008.03;5063966;28;20063;-60
2022/06/29 02:41:20;;;;;;;7.50;4.30;;;;;;;19.42;85.06;96992.31;5065171;28;20059;-61
2022/06/29 02:43:47;;;;;;;7.53;4.75;;;;;;;19.54;85.11;96994.47;5064789;28;20063;-60
2022/06/29 02:46:14;;;;;;;8.70;5.15;;;;;;;19.66;84.28;97004.31;5064879;28;20055;-61
2022/06/29 02:48:41;;;;;;;10.90;5.22;;;;;;;19.20;84.54;96904.00;5063357;28;20473;-61
2022/06/29 02:51:08;;;;;;;10.88;5.05;;;;;;;19.10;83.98;96905.00;5064438;28;20082;-61
2022/06/29 02:53:35;;;;;;;7.32;4.43;;;;;;;19.53;83.81;96962.00;5064732;28;20398;-61
2022/06/29 02:56:02;;;;;;;9.80;5.03;;;;;;;19.42;83.31;96916.44;5062903;28;20075;-61
2022/06/29 02:58:29;;;;;;;7.03;4.28;;;;;;;19.91;84.18;96959.63;5063213;28;20052;-60
2022/06/29 03:00:56;;;;;;;6.18;5.20;;;;;;;19.82;82.51;96962.22;5064796;28;20499;-60
2022/06/29 03:03:22;;;;;;;7.00;4.70;;;;;;;19.72;82.59;96951.19;5064408;28;20549;-60
2022/06/29 03:05:49;;;;;;;5.88;4.60;;;;;;;20.25;81.83;97001.53;5064926;28;20048;-62
2022/06/29 03:08:16;;;;;;;7.88;4.75;;;;;;;20.27;81.81;96996.22;5063647;28;20446;-60
2022/06/29 03:10:42;;;;;;;6.50;4.53;;;;;;;20.49;81.10;96983.28;5063621;28;20060;-61
2022/06/29 03:13:09;;;;;;;10.77;5.38;;;;;;;20.73;80.79;97010.06;5063019;28;20063;-62
2022/06/29 03:15:36;;;;;;;7.97;4.85;;;;;;;20.62;79.77;97003.88;5062524;28;20672;-60
2022/06/29 03:18:03;;;;;;;5.43;4.38;;;;;;;20.65;79.32;96997.38;5062766;28;20138;-61
2022/06/29 03:20:30;;;;;;;5.32;4.72;;;;;;;20.75;78.20;96996.34;5064332;28;20056;-62
2022/06/29 03:22:56;;;;;;;9.60;5.10;;;;;;;20.84;77.30;96997.34;5064386;28;20055;-61
2022/06/29 03:25:23;;;;;;;11.88;5.43;;;;;;;20.95;76.86;96988.63;5062762;28;20063;-61
2022/06/29 03:27:50;;;;;;;8.80;4.38;;;;;;;20.88;76.29;96983.16;5064350;28;20045;-60
2022/06/29 03:30:18;;;;;;;12.20;5.18;;;;;;;21.11;76.34;96988.66;5062632;28;20049;-60
2022/06/29 03:32:45;;;;;;;4.85;4.32;;;;;;;21.05;76.05;96996.06;5063902;28;20045;-61
2022/06/29 03:35:12;;;;;;;6.00;4.68;;;;;;;21.12;76.08;96990.22;5062676;28;20059;-61
2022/06/29 03:37:38;;;;;;;10.48;6.13;;;;;;;21.37;74.54;96993.19;5064056;28;20056;-60
2022/06/29 03:40:05;;;;;;;7.20;4.47;;;;;;;20.69;74.40;96905.22;5063833;28;20135;-61
2022/06/29 03:42:32;;;;;;;5.53;4.43;;;;;;;21.37;74.38;96976.28;5062625;28;20060;-61
2022/06/29 03:44:59;;;;;;;8.00;4.63;;;;;;;21.35;75.35;96990.03;5063700;28;20515;-63
2022/06/29 03:47:25;;;;;;;5.80;4.43;;;;;;;21.43;74.67;96993.47;5063849;28;20045;-62
2022/06/29 03:49:53;;;;;;;7.55;4.70;;;;;;;21.45;74.41;96966.41;5062462;28;20524;-61
2022/06/29 03:52:19;;;;;;;5.05;4.55;;;;;;;21.48;74.33;96965.50;5063825;28;20057;-63
2022/06/29 03:54:46;;;;;;;8.57;4.75;;;;;;;21.68;73.93;96985.94;5062213;28;20064;-60
2022/06/29 03:57:13;;;;;;;6.13;5.00;;;;;;;21.73;74.06;96981.78;5062537;28;20056;-62
2022/06/29 03:59:39;;;;;;;6.68;4.60;;;;;;;21.86;72.94;96986.25;5062730;28;20040;-60
2022/06/29 04:02:06;;;;;;;5.20;4.18;;;;;;;21.80;71.83;96962.66;5062589;28;20067;-61
2022/06/29 04:04:33;;;;;;;8.07;4.28;;;;;;;21.79;71.78;96963.91;5064117;28;20144;-62
2022/06/29 04:07:00;;;;;;;4.32;3.92;;;;;;;21.17;72.07;96860.09;5062413;28;20053;-63
2022/06/29 04:09:27;;;;;;;6.43;4.50;;;;;;;21.95;72.85;96983.59;5063896;28;20059;-61
2022/06/29 04:11:54;;;;;;;8.95;4.60;;;;;;;21.40;72.50;96868.31;5063937;28;20052;-62
2022/06/29 04:14:25;;;;;;;9.25;4.03;;;;;;;22.30;71.63;96981.75;5063634;28;20087;-62
2022/06/29 04:16:54;;;;;;;6.93;5.15;;;;;;;21.89;71.94;96917.66;5063836;28;20165;-60
2022/06/29 04:19:21;;;;;;;5.82;4.55;;;;;;;22.17;72.74;96947.88;5063227;28;20052;-60
2022/06/29 04:21:48;;;;;;;7.85;5.57;;;;;;;22.59;71.76;96993.00;5062413;28;20051;-61
2022/06/29 04:24:15;;;;;;;7.45;6.10;;;;;;;22.63;72.38;96990.84;5065813;28;20052;-62
2022/06/29 04:26:43;;;;;;;7.68;5.82;;;;;;;22.72;71.73;96985.31;5067588;28;20053;-61
2022/06/29 04:29:10;;;;;;;8.45;5.10;;;;;;;22.82;72.10;96989.84;5067127;28;20510;-62
2022/06/29 04:31:37;;;;;;;7.60;5.78;;;;;;;22.88;72.14;96991.66;5067305;28;20064;-60
2022/06/29 04:34:04;;;;;;;10.35;5.85;;;;;;;22.04;72.08;96862.41;5065926;28;20056;-60
2022/06/29 04:36:31;;;;;;;5.88;5.38;;;;;;;22.55;71.83;96935.84;5066731;28;20517;-61
2022/06/29 04:38:58;;;;;;;9.32;5.68;;;;;;;23.02;71.62;97004.50;5067239;28;20063;-61
2022/06/29 04:41:25;;;;;;;9.25;6.90;;;;;;;23.07;71.56;96989.81;5067109;28;20106;-60
2022/06/29 04:43:52;;;;;;;12.68;6.47;;;;;;;23.26;71.13;96985.97;5067144;28;20075;-60
2022/06/29 04:46:22;;;;;;;8.95;5.38;;;;;;;23.48;68.65;97015.09;5066857;28;20048;-60
2022/06/29 04:48:55;;;;;;;7.68;5.05;;;;;;;22.81;69.17;96917.66;5067226;28;20063;-61
2022/06/29 04:51:24;;;;;;;6.83;5.17;;;;;;;23.04;69.90;96956.81;5066426;28;20056;-60
2022/06/29 04:53:56;;;;;;;8.35;5.03;;;;;;;23.33;69.20;96980.09;5067033;28;20290;-60
2022/06/29 04:56:28;;;;;;;6.47;4.97;;;;;;;23.59;68.71;96998.56;5065242;28;20052;-61
2022/06/29 04:58:57;;;;;;;8.13;4.93;;;;;;;23.81;68.58;97005.06;5066963;28;20056;-62
2022/06/29 05:01:26;;;;;;;5.90;5.22;;;;;;;23.90;68.20;96980.44;5065132;28;20174;-63
2022/06/29 05:03:54;;;;;;;10.60;5.22;;;;;;;24.30;66.93;97017.41;5066828;28;20044;-60
2022/06/29 05:06:21;;;;;;;6.88;4.68;;;;;;;24.30;67.21;97008.94;5066415;28;20086;-62
2022/06/29 05:08:49;;;;;;;7.40;5.45;;;;;;;24.50;67.49;97012.19;5065300;28;20098;-60
2022/06/29 05:11:18;;;;;;;5.40;4.90;;;;;;;24.65;66.06;97018.91;5064552;28;20056;-62
2022/06/29 05:13:45;;;;;;;5.55;4.95;;;;;;;24.34;66.38;96947.31;5066992;28;20114;-60
2022/06/29 05:16:13;;;;;;;6.20;5.40;;;;;;;24.84;67.32;97016.97;5066796;28;20156;-61
2022/06/29 05:18:40;;;;;;;6.15;5.40;;;;;;;25.01;66.21;97013.44;5066835;28;20145;-61
2022/06/29 05:21:09;;;;;;;7.68;4.90;;;;;;;25.13;64.89;97006.09;5065974;28;20506;-60
2022/06/29 05:23:36;;;;;;;5.53;4.43;;;;;;;25.30;62.21;97016.72;5064609;28;20056;-60
2022/06/29 05:26:03;;;;;;;6.75;5.38;;;;;;;25.46;60.81;97015.66;5066249;28;20063;-62
2022/06/29 05:28:29;;;;;;;6.50;5.07;;;;;;;25.49;61.02;97008.25;5064645;28;20515;-60
2022/06/29 05:30:56;;;;;;;5.32;4.82;;;;;;;25.58;58.42;97006.22;5066336;28;20059;-61
2022/06/29 05:33:23;;;;;;;7.90;5.03;;;;;;;25.49;59.16;96979.88;5065495;28;20080;-63
2022/06/29 05:35:49;;;;;;;5.30;4.80;;;;;;;25.26;57.05;96933.81;5066298;28;20056;-60
2022/06/29 05:38:16;;;;;;;4.75;4.35;;;;;;;25.72;57.16;96976.47;5064829;28;20052;-59
2022/06/29 05:40:44;;;;;;;6.03;3.97;;;;;;;26.03;55.34;97014.03;5065817;28;20056;-60
2022/06/29 05:43:11;;;;;;;5.40;4.90;;;;;;;26.05;55.86;97011.50;5066007;28;20048;-60
2022/06/29 05:45:38;;;;;;;5.53;4.15;;;;;;;26.27;54.46;97012.91;5065799;28;20170;-59
2022/06/29 05:48:05;;;;;;;5.65;4.30;;;;;;;26.20;54.74;97023.81;5066118;28;20056;-60
2022/06/29 05:50:31;;;;;;;5.40;4.22;;;;;;;26.37;54.61;97010.84;5063406;28;20056;-61
2022/06/29 05:52:58;;;;;;;5.30;4.53;;;;;;;26.48;54.03;97003.41;5065341;28;20059;-61
2022/06/29 05:55:26;;;;;;;6.45;4.30;;;;;;;26.44;54.28;97017.00;5060444;28;20495;-62
2022/06/29 05:57:52;;;;;;;8.25;4.22;;;;;;;26.66;54.04;97025.34;5058459;28;20040;-69
2022/06/29 06:00:19;;;;;;;4.10;3.75;;;;;;;26.56;52.49;96978.28;5061819;28;20052;-61
2022/06/29 06:02:51;;;;;;;6.18;4.28;;;;;;;26.98;51.72;97015.31;5061364;28;20495;-68
2022/06/29 06:05:18;;;;;;;6.80;4.55;;;;;;;26.91;50.63;96987.19;5060366;28;20502;-69
2022/06/29 06:07:45;;;;;;;6.40;4.07;;;;;;;27.25;52.08;97007.44;5056056;28;20048;-61
2022/06/29 06:10:12;;;;;;;4.95;4.40;;;;;;;26.77;51.03;96937.53;5061199;28;20079;-66
2022/06/29 06:12:38;;;;;;;4.75;4.10;;;;;;;27.18;50.18;96985.03;5059639;28;20590;-69
2022/06/29 06:15:07;;;;;;;5.20;4.78;;;;;;;27.41;51.24;97017.69;5061715;28;20053;-62
2022/06/29 06:17:34;;;;;;;5.50;4.13;;;;;;;26.27;51.35;96822.59;5066855;28;20055;-66
2022/06/29 06:20:02;;;;;;;7.90;4.63;;;;;;;27.71;50.41;97022.25;5057745;28;20468;-63
2022/06/29 06:22:29;;;;;;;4.97;4.55;;;;;;;27.58;49.76;96999.72;5061851;28;20080;-65
2022/06/29 06:24:56;;;;;;;7.30;4.85;;;;;;;26.71;50.57;96831.44;5066061;28;20052;-59
2022/06/29 06:27:23;;;;;;;4.47;4.07;;;;;;;27.81;49.51;96984.66;5061988;28;20159;-63
2022/06/29 06:29:50;;;;;;;4.53;4.13;;;;;;;27.81;48.94;97001.75;5060840;28;20051;-60
2022/06/29 06:32:17;;;;;;;7.88;4.43;;;;;;;27.87;48.46;97019.75;5060066;28;20048;-62
2022/06/29 06:34:44;;;;;;;9.43;5.25;;;;;;;27.81;48.74;96981.81;5061797;28;20049;-61
2022/06/29 06:37:11;;;;;;;5.53;4.60;;;;;;;27.77;48.44;96952.72;5058085;28;20565;-61
2022/06/29 06:39:37;;;;;;;5.97;5.05;;;;;;;28.03;47.78;96979.47;5063384;28;20059;-61
2022/06/29 06:42:04;;;;;;;7.93;5.45;;;;;;;28.24;47.18;96996.69;5059954;28;20526;-64
2022/06/29 06:44:31;;;;;;;5.63;4.82;;;;;;;27.73;45.81;97020.47;5062249;28;20044;-67
2022/06/29 06:47:00;;;;;;;7.85;5.13;;;;;;;28.10;46.24;97010.44;5054172;28;20052;-65
2022/06/29 06:49:28;;;;;;;8.93;5.50;;;;;;;27.32;47.66;96904.69;5059739;28;20053;-65
2022/06/29 06:51:55;;;;;;;5.68;5.07;;;;;;;27.91;46.71;96991.91;5056316;28;20057;-68
2022/06/29 06:54:22;;;;;;;6.03;4.90;;;;;;;28.14;45.92;97008.16;5061602;28;20578;-66
2022/06/29 06:56:49;;;;;;;5.50;5.00;;;;;;;28.27;45.13;97012.81;5053854;28;20054;-63
2022/06/29 06:59:16;;;;;;;6.18;5.65;;;;;;;28.22;42.83;97016.34;5062816;28;20048;-65
2022/06/29 07:01:43;;;;;;;5.20;4.70;;;;;;;27.93;42.66;97006.44;5087370;28;20048;-64
2022/06/29 07:04:16;;;;;;;5.87;5.17;;;;;;;27.58;43.91;96965.56;5062143;28;20131;-67
2022/06/29 07:06:43;;;;;;;9.48;5.20;;;;;;;27.87;43.48;96988.41;5058605;28;20044;-64
2022/06/29 07:09:11;;;;;;;6.05;5.43;;;;;;;27.61;43.77;97007.28;5064157;28;20150;-67
2022/06/29 07:11:38;;;;;;;6.05;5.13;;;;;;;27.53;43.74;96986.13;5059869;28;20046;-65
2022/06/29 07:14:04;;;;;;;5.97;4.53;;;;;;;27.42;43.44;96968.81;5063799;28;20061;-74
2022/06/29 07:16:31;;;;;;;6.65;5.32;;;;;;;27.87;44.67;97008.34;5054901;28;20044;-63
2022/06/29 07:18:58;;;;;;;11.25;4.88;;;;;;;28.23;44.63;97006.53;5060473;28;20117;-62
2022/06/29 07:21:25;;;;;;;5.65;5.13;;;;;;;27.27;42.36;96839.16;5063067;28;20060;-68
2022/06/29 07:23:51;;;;;;;7.93;5.10;;;;;;;28.32;43.33;97006.44;5060455;28;20052;-67
2022/06/29 07:26:18;;;;;;;6.20;4.88;;;;;;;28.34;43.08;97009.59;5056568;28;20537;-67
2022/06/29 07:28:45;;;;;;;8.40;5.43;;;;;;;28.50;43.22;97006.28;5067507;28;20079;-67
2022/06/29 07:31:12;;;;;;;6.55;5.95;;;;;;;28.55;43.03;96994.97;5053881;28;20061;-62
2022/06/29 07:33:38;;;;;;;5.43;4.97;;;;;;;28.79;42.94;97006.28;5063430;28;20124;-62
2022/06/29 07:36:05;;;;;;;7.68;4.63;;;;;;;27.54;43.94;96956.41;5055708;28;20053;-68
2022/06/29 07:38:33;;;;;;;6.75;5.38;;;;;;;28.10;43.54;97016.13;5068737;28;20052;-64
2022/06/29 07:41:01;;;;;;;5.60;5.10;;;;;;;28.47;42.72;97010.09;5056997;28;20067;-65
2022/06/29 07:43:28;;;;;;;8.27;5.20;;;;;;;28.84;42.55;97005.59;5062128;28;20063;-62
2022/06/29 07:45:58;;;;;;;5.85;5.18;;;;;;;28.99;41.84;96980.72;5057644;28;20056;-65
2022/06/29 07:48:25;;;;;;;6.38;4.97;;;;;;;28.98;40.72;96951.41;5058051;28;20131;-68
2022/06/29 07:50:53;;;;;;;6.00;4.95;;;;;;;29.48;40.62;97004.34;5061311;28;20048;-65
2022/06/29 07:53:20;;;;;;;6.45;5.38;;;;;;;28.98;41.06;96999.09;5094316;28;20071;-60
2022/06/29 07:55:47;;;;;;;7.03;6.43;;;;;;;27.86;41.74;96784.66;5060949;28;20063;-70
2022/06/29 07:58:15;;;;;;;9.57;5.57;;;;;;;29.52;41.07;96992.72;5064499;28;20508;-69
2022/06/29 08:00:42;;;;;;;7.82;5.57;;;;;;;29.83;40.04;97001.47;5063342;28;20426;-68
2022/06/29 08:03:09;;;;;;;8.15;6.45;;;;;;;29.65;39.81;96978.91;5064980;28;20117;-67
2022/06/29 08:05:36;;;;;;;9.93;5.50;;;;;;;30.04;39.49;97005.91;5063018;28;20105;-67
2022/06/29 08:08:04;;;;;;;6.90;5.10;;;;;;;30.00;39.16;96996.78;5064039;28;20054;-68
2022/06/29 08:10:31;;;;;;;5.25;4.75;;;;;;;30.23;38.31;97010.06;5065661;28;20050;-71
2022/06/29 08:12:59;;;;;;;7.38;5.30;;;;;;;30.32;38.40;97009.91;5065662;28;20399;-63
2022/06/29 08:15:27;;;;;;;8.90;5.82;;;;;;;30.43;38.54;97015.00;5069105;28;20068;-66
2022/06/29 08:17:54;;;;;;;14.65;7.00;;;;;;;30.04;38.49;96960.19;5061226;28;20131;-63
2022/06/29 08:20:21;;;;;;;8.65;5.60;;;;;;;30.41;39.03;97006.91;5063557;28;20056;-60
2022/06/29 08:22:48;;;;;;;5.88;5.03;;;;;;;30.29;37.88;96970.91;5061090;27;20114;-60
2022/06/29 08:25:15;;;;;;;5.97;5.22;;;;;;;30.82;37.68;97002.69;5091168;28;20064;-62
2022/06/29 08:27:42;;;;;;;5.63;4.88;;;;;;;30.89;37.64;97016.53;5060338;28;20055;-60
2022/06/29 08:30:13;;;;;;;5.28;4.82;;;;;;;31.11;36.80;97013.06;5063267;28;20060;-60
2022/06/29 08:32:42;;;;;;;5.43;5.03;;;;;;;31.20;36.76;97009.22;5062038;28;20052;-59
2022/06/29 08:35:10;;;;;;;7.10;5.80;;;;;;;31.08;37.17;97011.22;5062855;28;20044;-59
2022/06/29 08:37:37;;;;;;;15.35;7.78;;;;;;;29.58;36.24;96967.88;5061442;28;20060;-59
2022/06/29 08:40:07;;;;;;;6.95;5.68;;;;;;;30.10;35.92;97012.47;5062321;28;20056;-67
2022/06/29 08:42:36;;;;;;;7.30;5.10;;;;;;;30.29;36.11;97008.06;5063126;28;20308;-67
2022/06/29 08:45:04;;;;;;;6.80;5.72;;;;;;;30.57;35.87;97014.84;5063234;28;20152;-72
2022/06/29 08:47:31;;;;;;;6.75;5.53;;;;;;;31.06;35.07;97018.75;5065395;28;20052;-61
2022/06/29 08:49:59;;;;;;;7.13;5.78;;;;;;;31.29;34.37;97032.72;5066146;28;20529;-61
2022/06/29 08:52:26;;;;;;;6.90;5.75;;;;;;;30.90;35.28;96978.03;5063880;28;20068;-68
2022/06/29 08:54:53;;;;;;;5.90;5.00;;;;;;;31.22;35.07;96995.22;5062988;28;20059;-69
2022/06/29 08:57:23;;;;;;;6.22;5.43;;;;;;;31.13;35.47;96983.91;5055541;27;20053;-60
2022/06/29 08:59:52;;;;;;;7.13;5.18;;;;;;;31.52;34.93;97019.41;5067298;28;20080;-60
2022/06/29 09:02:28;;;;;;;5.93;5.15;;;;;;;31.43;35.06;96985.22;5061368;28;20052;-68
2022/06/29 09:04:55;;;;;;;13.90;6.13;;;;;;;29.97;34.22;97026.31;5062709;28;20049;-71
2022/06/29 09:07:23;;;;;;;6.10;5.55;;;;;;;29.34;34.45;96958.69;5065021;28;20063;-61
2022/06/29 09:10:03;;;;;;;9.93;6.72;;;;;;;30.06;34.16;97013.97;5065203;28;20131;-59
2022/06/29 09:12:34;;;;;;;6.80;6.03;;;;;;;30.58;35.13;97005.00;5064605;28;20063;-61
2022/06/29 09:15:02;;;;;;;11.18;7.50;;;;;;;30.95;33.25;97002.28;5060269;28;20086;-60
2022/06/29 09:17:34;;;;;;;12.70;5.38;;;;;;;30.83;33.57;97018.53;5061525;28;20048;-58
2022/06/29 09:20:01;;;;;;;12.25;9.27;;;;;;;30.79;33.98;96945.69;5067054;28;20525;-60
2022/06/29 09:22:53;;;;;;;7.93;6.85;;;;;;;30.74;34.41;96986.44;5069589;28;20471;-71
2022/06/29 09:25:27;;;;;;;8.32;6.20;;;;;;;30.44;31.60;96977.31;5070457;28;20052;-68
2022/06/29 09:27:55;;;;;;;6.10;5.53;;;;;;;30.83;31.44;97021.41;5060595;28;20294;-73
2022/06/29 09:30:30;;;;;;;7.10;6.18;;;;;;;30.86;30.54;97020.41;5078756;28;20036;-60
2022/06/29 09:33:00;;;;;;;8.40;6.15;;;;;;;30.13;31.45;96997.19;5059779;28;20187;-61
2022/06/29 09:35:27;;;;;;;9.60;6.65;;;;;;;30.35;30.31;96994.59;5058043;28;20076;-68
2022/06/29 09:38:25;;;;;;;6.75;5.90;;;;;;;30.34;31.95;96984.47;5063343;28;20049;-58
2022/06/29 09:41:15;;;;;;;7.70;5.70;;;;;;;30.58;31.14;97019.31;5060112;28;20507;-68
2022/06/29 09:43:46;;;;;;;9.48;6.57;;;;;;;30.15;31.78;96980.31;5056984;28;20490;-59
2022/06/29 09:46:19;;;;;;;6.05;5.07;;;;;;;30.42;31.92;97019.91;5055788;28;20136;-59
2022/06/29 09:48:46;;;;;;;9.07;6.35;;;;;;;30.78;30.76;97013.56;5063945;28;20048;-66
2022/06/29 09:51:31;;;;;;;6.82;5.75;;;;;;;30.82;30.65;97014.13;5065231;28;20048;-65
2022/06/29 09:54:03;;;;;;;6.60;5.28;;;;;;;29.63;30.66;96792.97;5064768;28;20481;-59
2022/06/29 09:56:31;;;;;;;10.40;6.22;;;;;;;30.97;32.03;97007.50;5065038;28;20048;-59
2022/06/29 09:58:59;;;;;;;7.65;5.20;;;;;;;30.62;30.85;96891.16;5064422;28;20044;-66
2022/06/29 10:04:13;;;;;;;7.97;6.00;;;;;;;31.09;31.38;96904.03;5065939;28;20326;-64
2022/06/29 10:06:42;;;;;;;7.07;5.53;;;;;;;30.73;32.36;96965.63;5064049;28;20126;-70
2022/06/29 10:09:09;;;;;;;7.13;5.80;;;;;;;30.55;32.71;96999.50;5077553;28;20067;-68
2022/06/29 10:15:28;;;;;;;5.95;5.38;;;;;;;30.37;31.49;96937.72;5062933;28;20048;-61
2022/06/29 10:18:12;;;;;;;6.68;5.10;;;;;;;31.15;31.53;96998.53;5064415;28;20135;-66
2022/06/29 10:20:48;;;;;;;7.28;5.38;;;;;;;30.58;31.82;96922.06;5084315;28;20840;-60
2022/06/29 10:24:05;;;;;;;5.82;5.18;;;;;;;31.35;31.58;97001.28;5083474;28;20047;-65
2022/06/29 10:26:33;;;;;;;7.50;5.20;;;;;;;31.42;32.21;96997.97;5021874;28;20064;-67
2022/06/29 10:29:05;;;;;;;4.85;4.47;;;;;;;31.52;32.55;97007.94;5043364;28;20052;-63
2022/06/29 10:31:51;;;;;;;6.95;4.68;;;;;;;31.03;32.51;97006.22;5044961;28;20092;-61
2022/06/29 10:34:30;;;;;;;7.10;4.80;;;;;;;30.49;32.18;96999.44;5058171;28;20229;-65
2022/06/29 10:37:05;;;;;;;17.58;6.45;;;;;;;30.42;32.97;96962.72;5045952;28;20071;-63
2022/06/29 10:39:49;;;;;;;6.13;5.25;;;;;;;30.98;32.64;96991.88;5044666;28;20056;-65
2022/06/29 10:45:24;;;;;;;8.18;4.65;;;;;;;32.25;31.15;96997.13;5044129;28;20053;-64
2022/06/29 10:47:54;;;;;;;5.43;4.60;;;;;;;32.23;30.13;97001.84;5043602;28;20067;-61
2022/06/29 10:50:27;;;;;;;4.57;4.28;;;;;;;31.93;30.98;96997.78;5058471;28;20182;-62
2022/06/29 10:52:57;;;;;;;7.18;5.18;;;;;;;32.21;30.57;96995.81;5064195;28;20178;-66
2022/06/29 10:55:28;;;;;;;6.57;4.85;;;;;;;32.21;30.72;96970.00;5064062;28;20060;-61
2022/06/29 10:57:56;;;;;;;7.32;4.82;;;;;;;32.54;30.39;96981.59;5064814;28;20048;-60
2022/06/29 11:00:23;;;;;;;5.80;4.65;;;;;;;32.95;30.95;96990.56;5064540;28;20061;-61
2022/06/29 11:02:50;;;;;;;6.22;5.13;;;;;;;32.09;30.72;96951.22;5064457;28;20427;-61
2022/06/29 11:05:17;;;;;;;6.18;5.57;;;;;;;32.17;32.30;96983.81;5063870;28;20048;-60
2022/06/29 11:13:39;;;;;;;4.75;4.38;;;;;;;31.92;32.67;96990.47;5001302;28;20058;-61
2022/06/29 11:16:07;;;;;;;4.60;4.20;;;;;;;31.19;32.34;96990.50;5051156;28;20055;-61
2022/06/29 11:18:34;;;;;;;5.30;4.28;;;;;;;32.01;32.53;96975.94;5062524;28;20517;-65
2022/06/29 11:21:02;;;;;;;4.95;4.25;;;;;;;32.43;31.32;96984.44;5063641;28;20052;-65
2022/06/29 11:23:32;;;;;;;4.93;4.50;;;;;;;32.16;31.90;96983.03;5064024;28;20568;-66
2022/06/29 11:26:00;;;;;;;4.93;4.53;;;;;;;32.24;32.03;96937.44;5063182;28;20109;-67
2022/06/29 11:28:28;;;;;;;4.50;4.10;;;;;;;32.71;31.79;96970.94;5062274;28;20052;-65
2022/06/29 11:31:01;;;;;;;5.35;4.85;;;;;;;32.67;31.84;96970.41;5063185;28;20060;-65
2022/06/29 11:33:30;;;;;;;4.80;4.28;;;;;;;32.28;32.21;96972.38;5062741;28;20063;-64
2022/06/29 11:36:08;;;;;;;6.65;5.55;;;;;;;32.19;33.10;96975.47;5063413;28;20067;-66
2022/06/29 11:38:40;;;;;;;5.65;4.32;;;;;;;32.22;33.18;96969.50;5062738;28;20053;-62
2022/06/29 11:41:25;;;;;;;5.03;4.22;;;;;;;32.52;32.16;96963.34;5063768;28;20451;-62
2022/06/29 11:44:01;;;;;;;6.25;4.57;;;;;;;32.86;31.35;96960.00;5063866;28;20056;-61
2022/06/29 11:46:31;;;;;;;4.40;4.00;;;;;;;32.53;31.61;96959.97;5062359;28;20060;-65
2022/06/29 11:51:56;;;;;;;5.78;4.18;;;;;;;32.01;34.09;96948.03;5063777;28;20063;-66
2022/06/29 11:54:38;;;;;;;6.18;3.80;;;;;;;31.91;33.55;96960.25;5062608;28;20048;-60
2022/06/29 11:57:14;;;;;;;4.03;3.72;;;;;;;32.69;32.22;96953.44;5063819;28;20051;-60
2022/06/29 11:59:44;;;;;;;7.07;5.15;;;;;;;31.92;32.58;96915.97;5063851;28;20049;-66
2022/06/29 12:02:17;;;;;;;3.90;3.60;;;;;;;32.43;33.18;96955.75;5062177;28;20048;-66